sensor_id;sensor_type;location;lat;lon;timestamp;P1;durP1;ratioP1;P2;durP2;ratioP2
69991;SDS011;57332;51.320;-0.580;2023-03-01T00:00:01;4.90;;;2.55;;
69991;SDS011;57332;51.320;-0.580;2023-03-01T00:02:28;5.88;;;2.92;;
69991;SDS011;57332;51.320;-0.580;2023-03-01T00:04:55;6.03;;;2.80;;
69991;SDS011;57332;51.320;-0.580;2023-03-01T00:07:21;5.20;;;2.42;;
69991;SDS011;57332;51.320;-0.580;2023-03-01T00:09:48;5.90;;;3.15;;
69991;SDS011;57332;51.320;-0.580;2023-03-01T00:12:16;6.38;;;3.00;;
69991;SDS011;57332;51.320;-0.580;2023-03-01T00:14:42;6.22;;;3.35;;
69991;SDS011;57332;51.320;-0.580;2023-03-01T00:17:09;7.35;;;3.75;;
69991;SDS011;57332;51.320;-0.580;2023-03-01T00:19:36;6.63;;;3.65;;
69991;SDS011;57332;51.320;-0.580;2023-03-01T00:22:03;7.95;;;3.75;;
69991;SDS011;57332;51.320;-0.580;2023-03-01T00:24:30;7.32;;;3.60;;
69991;SDS011;57332;51.320;-0.580;2023-03-01T00:26:57;6.97;;;3.70;;
69991;SDS011;57332;51.320;-0.580;2023-03-01T00:29:25;8.32;;;3.53;;
69991;SDS011;57332;51.320;-0.580;2023-03-01T00:31:52;8.30;;;3.85;;
69991;SDS011;57332;51.320;-0.580;2023-03-01T00:34:18;7.65;;;4.18;;
69991;SDS011;57332;51.320;-0.580;2023-03-01T00:36:45;7.78;;;3.75;;
69991;SDS011;57332;51.320;-0.580;2023-03-01T00:39:13;8.00;;;3.90;;
69991;SDS011;57332;51.320;-0.580;2023-03-01T00:41:41;8.25;;;3.65;;
69991;SDS011;57332;51.320;-0.580;2023-03-01T00:44:08;7.35;;;3.60;;
69991;SDS011;57332;51.320;-0.580;2023-03-01T00:46:35;7.90;;;3.42;;
69991;SDS011;57332;51.320;-0.580;2023-03-01T00:49:02;7.15;;;3.80;;
69991;SDS011;57332;51.320;-0.580;2023-03-01T00:51:31;7.60;;;4.32;;
69991;SDS011;57332;51.320;-0.580;2023-03-01T00:53:59;7.85;;;3.67;;
69991;SDS011;57332;51.320;-0.580;2023-03-01T00:56:26;8.63;;;4.53;;
69991;SDS011;57332;51.320;-0.580;2023-03-01T00:58:54;10.45;;;4.20;;
69991;SDS011;57332;51.320;-0.580;2023-03-01T01:01:22;9.40;;;4.75;;
69991;SDS011;57332;51.320;-0.580;2023-03-01T01:03:50;10.15;;;5.00;;
69991;SDS011;57332;51.320;-0.580;2023-03-01T01:06:18;10.70;;;5.20;;
69991;SDS011;57332;51.320;-0.580;2023-03-01T01:08:46;12.65;;;5.80;;
69991;SDS011;57332;51.320;-0.580;2023-03-01T01:11:13;10.23;;;5.45;;
69991;SDS011;57332;51.320;-0.580;2023-03-01T01:13:41;8.88;;;5.05;;
69991;SDS011;57332;51.320;-0.580;2023-03-01T01:16:08;11.02;;;4.82;;
69991;SDS011;57332;51.320;-0.580;2023-03-01T01:18:35;11.73;;;5.43;;
69991;SDS011;57332;51.320;-0.580;2023-03-01T01:21:10;13.27;;;5.40;;
69991;SDS011;57332;51.320;-0.580;2023-03-01T01:23:37;10.88;;;5.65;;
69991;SDS011;57332;51.320;-0.580;2023-03-01T01:26:06;10.43;;;5.47;;
69991;SDS011;57332;51.320;-0.580;2023-03-01T01:28:33;12.23;;;5.53;;
69991;SDS011;57332;51.320;-0.580;2023-03-01T01:31:00;10.90;;;5.78;;
69991;SDS011;57332;51.320;-0.580;2023-03-01T01:33:27;10.80;;;5.88;;
69991;SDS011;57332;51.320;-0.580;2023-03-01T01:35:54;13.77;;;5.53;;
69991;SDS011;57332;51.320;-0.580;2023-03-01T01:38:21;11.35;;;5.53;;
69991;SDS011;57332;51.320;-0.580;2023-03-01T01:40:48;12.23;;;6.75;;
69991;SDS011;57332;51.320;-0.580;2023-03-01T01:43:38;13.30;;;6.22;;
69991;SDS011;57332;51.320;-0.580;2023-03-01T01:48:54;11.93;;;6.03;;
69991;SDS011;57332;51.320;-0.580;2023-03-01T01:51:23;12.73;;;6.45;;
69991;SDS011;57332;51.320;-0.580;2023-03-01T01:53:51;11.25;;;6.25;;
69991;SDS011;57332;51.320;-0.580;2023-03-01T01:56:19;13.20;;;6.32;;
69991;SDS011;57332;51.320;-0.580;2023-03-01T01:58:46;12.77;;;7.20;;
69991;SDS011;57332;51.320;-0.580;2023-03-01T02:01:14;14.73;;;5.97;;
69991;SDS011;57332;51.320;-0.580;2023-03-01T02:03:41;11.80;;;6.60;;
69991;SDS011;57332;51.320;-0.580;2023-03-01T02:08:36;11.15;;;6.07;;
69991;SDS011;57332;51.320;-0.580;2023-03-01T02:11:04;12.27;;;6.22;;
69991;SDS011;57332;51.320;-0.580;2023-03-01T02:13:32;13.73;;;6.53;;
69991;SDS011;57332;51.320;-0.580;2023-03-01T02:15:59;12.55;;;6.78;;
69991;SDS011;57332;51.320;-0.580;2023-03-01T02:18:28;11.43;;;5.95;;
69991;SDS011;57332;51.320;-0.580;2023-03-01T02:23:28;14.65;;;6.20;;
69991;SDS011;57332;51.320;-0.580;2023-03-01T02:25:57;12.18;;;6.32;;
69991;SDS011;57332;51.320;-0.580;2023-03-01T02:30:53;12.77;;;6.05;;
69991;SDS011;57332;51.320;-0.580;2023-03-01T02:33:39;12.45;;;5.72;;
69991;SDS011;57332;51.320;-0.580;2023-03-01T02:36:10;15.05;;;6.13;;
69991;SDS011;57332;51.320;-0.580;2023-03-01T02:38:40;12.20;;;5.97;;
69991;SDS011;57332;51.320;-0.580;2023-03-01T02:41:07;13.30;;;5.88;;
69991;SDS011;57332;51.320;-0.580;2023-03-01T02:43:35;13.27;;;5.90;;
69991;SDS011;57332;51.320;-0.580;2023-03-01T02:46:04;12.05;;;5.68;;
69991;SDS011;57332;51.320;-0.580;2023-03-01T02:48:41;14.45;;;5.78;;
69991;SDS011;57332;51.320;-0.580;2023-03-01T02:53:49;12.70;;;6.50;;
69991;SDS011;57332;51.320;-0.580;2023-03-01T02:56:19;13.30;;;6.47;;
69991;SDS011;57332;51.320;-0.580;2023-03-01T02:58:46;13.95;;;6.10;;
69991;SDS011;57332;51.320;-0.580;2023-03-01T03:01:18;12.38;;;5.90;;
69991;SDS011;57332;51.320;-0.580;2023-03-01T03:03:45;14.02;;;6.00;;
69991;SDS011;57332;51.320;-0.580;2023-03-01T03:06:12;13.02;;;5.57;;
69991;SDS011;57332;51.320;-0.580;2023-03-01T03:08:39;12.10;;;5.38;;
69991;SDS011;57332;51.320;-0.580;2023-03-01T03:11:05;11.55;;;4.18;;
69991;SDS011;57332;51.320;-0.580;2023-03-01T03:13:32;10.57;;;4.40;;
69991;SDS011;57332;51.320;-0.580;2023-03-01T03:15:59;6.25;;;3.10;;
69991;SDS011;57332;51.320;-0.580;2023-03-01T03:18:26;9.23;;;2.78;;
69991;SDS011;57332;51.320;-0.580;2023-03-01T03:20:53;9.05;;;2.90;;
69991;SDS011;57332;51.320;-0.580;2023-03-01T03:23:21;5.40;;;2.78;;
69991;SDS011;57332;51.320;-0.580;2023-03-01T03:25:50;4.53;;;2.15;;
69991;SDS011;57332;51.320;-0.580;2023-03-01T03:28:17;5.38;;;2.40;;
69991;SDS011;57332;51.320;-0.580;2023-03-01T03:30:44;3.55;;;2.05;;
69991;SDS011;57332;51.320;-0.580;2023-03-01T03:33:11;4.13;;;2.00;;
69991;SDS011;57332;51.320;-0.580;2023-03-01T03:35:43;4.93;;;2.03;;
69991;SDS011;57332;51.320;-0.580;2023-03-01T03:38:11;4.88;;;2.10;;
69991;SDS011;57332;51.320;-0.580;2023-03-01T03:40:45;2.80;;;1.42;;
69991;SDS011;57332;51.320;-0.580;2023-03-01T03:43:14;3.53;;;1.83;;
69991;SDS011;57332;51.320;-0.580;2023-03-01T03:45:41;4.10;;;2.08;;
69991;SDS011;57332;51.320;-0.580;2023-03-01T03:48:09;3.30;;;1.40;;
69991;SDS011;57332;51.320;-0.580;2023-03-01T03:50:39;3.95;;;1.77;;
69991;SDS011;57332;51.320;-0.580;2023-03-01T03:53:08;4.60;;;1.80;;
69991;SDS011;57332;51.320;-0.580;2023-03-01T03:55:35;2.47;;;1.48;;
69991;SDS011;57332;51.320;-0.580;2023-03-01T03:58:06;3.67;;;1.77;;
69991;SDS011;57332;51.320;-0.580;2023-03-01T04:00:35;3.80;;;1.40;;
69991;SDS011;57332;51.320;-0.580;2023-03-01T04:03:02;4.38;;;1.30;;
69991;SDS011;57332;51.320;-0.580;2023-03-01T04:05:29;2.78;;;1.52;;
69991;SDS011;57332;51.320;-0.580;2023-03-01T04:07:56;4.80;;;1.70;;
69991;SDS011;57332;51.320;-0.580;2023-03-01T04:10:30;4.28;;;1.67;;
69991;SDS011;57332;51.320;-0.580;2023-03-01T04:12:57;3.47;;;1.67;;
69991;SDS011;57332;51.320;-0.580;2023-03-01T04:15:25;4.82;;;1.80;;
69991;SDS011;57332;51.320;-0.580;2023-03-01T04:17:53;3.80;;;1.83;;
69991;SDS011;57332;51.320;-0.580;2023-03-01T04:20:21;3.30;;;1.38;;
69991;SDS011;57332;51.320;-0.580;2023-03-01T04:23:02;3.50;;;1.45;;
69991;SDS011;57332;51.320;-0.580;2023-03-01T04:25:40;3.05;;;1.27;;
69991;SDS011;57332;51.320;-0.580;2023-03-01T04:28:08;2.70;;;1.50;;
69991;SDS011;57332;51.320;-0.580;2023-03-01T04:30:35;4.45;;;1.60;;
69991;SDS011;57332;51.320;-0.580;2023-03-01T04:33:06;3.65;;;1.73;;
69991;SDS011;57332;51.320;-0.580;2023-03-01T04:35:33;2.88;;;1.60;;
69991;SDS011;57332;51.320;-0.580;2023-03-01T04:38:01;3.22;;;1.50;;
69991;SDS011;57332;51.320;-0.580;2023-03-01T04:40:28;3.60;;;1.38;;
69991;SDS011;57332;51.320;-0.580;2023-03-01T04:42:55;3.50;;;1.50;;
69991;SDS011;57332;51.320;-0.580;2023-03-01T04:45:22;4.20;;;1.88;;
69991;SDS011;57332;51.320;-0.580;2023-03-01T04:47:49;3.47;;;1.50;;
69991;SDS011;57332;51.320;-0.580;2023-03-01T04:50:18;3.40;;;1.38;;
69991;SDS011;57332;51.320;-0.580;2023-03-01T04:52:50;5.80;;;1.60;;
69991;SDS011;57332;51.320;-0.580;2023-03-01T04:55:17;2.70;;;1.33;;
69991;SDS011;57332;51.320;-0.580;2023-03-01T04:57:44;3.53;;;1.65;;
69991;SDS011;57332;51.320;-0.580;2023-03-01T05:00:11;3.78;;;1.40;;
69991;SDS011;57332;51.320;-0.580;2023-03-01T05:02:52;3.28;;;1.33;;
69991;SDS011;57332;51.320;-0.580;2023-03-01T05:07:53;2.92;;;1.50;;
69991;SDS011;57332;51.320;-0.580;2023-03-01T05:10:20;2.13;;;1.30;;
69991;SDS011;57332;51.320;-0.580;2023-03-01T05:12:47;5.00;;;1.40;;
69991;SDS011;57332;51.320;-0.580;2023-03-01T05:15:14;2.65;;;1.30;;
69991;SDS011;57332;51.320;-0.580;2023-03-01T05:17:40;3.35;;;1.45;;
69991;SDS011;57332;51.320;-0.580;2023-03-01T05:20:07;3.63;;;1.40;;
69991;SDS011;57332;51.320;-0.580;2023-03-01T05:22:35;2.60;;;1.45;;
69991;SDS011;57332;51.320;-0.580;2023-03-01T05:25:02;2.42;;;1.30;;
69991;SDS011;57332;51.320;-0.580;2023-03-01T05:27:29;5.80;;;1.50;;
69991;SDS011;57332;51.320;-0.580;2023-03-01T05:29:56;2.80;;;1.35;;
69991;SDS011;57332;51.320;-0.580;2023-03-01T05:32:23;2.30;;;1.20;;
69991;SDS011;57332;51.320;-0.580;2023-03-01T05:34:50;2.47;;;1.40;;
69991;SDS011;57332;51.320;-0.580;2023-03-01T05:37:18;2.17;;;1.30;;
69991;SDS011;57332;51.320;-0.580;2023-03-01T05:39:46;3.22;;;1.30;;
69991;SDS011;57332;51.320;-0.580;2023-03-01T05:42:16;2.53;;;1.23;;
69991;SDS011;57332;51.320;-0.580;2023-03-01T05:44:43;2.30;;;1.08;;
69991;SDS011;57332;51.320;-0.580;2023-03-01T05:47:11;2.88;;;1.50;;
69991;SDS011;57332;51.320;-0.580;2023-03-01T05:49:38;2.58;;;1.58;;
69991;SDS011;57332;51.320;-0.580;2023-03-01T05:52:05;2.88;;;1.35;;
69991;SDS011;57332;51.320;-0.580;2023-03-01T05:54:32;2.95;;;1.38;;
69991;SDS011;57332;51.320;-0.580;2023-03-01T05:56:59;3.53;;;1.20;;
69991;SDS011;57332;51.320;-0.580;2023-03-01T05:59:26;3.67;;;1.17;;
69991;SDS011;57332;51.320;-0.580;2023-03-01T06:01:53;3.65;;;1.40;;
69991;SDS011;57332;51.320;-0.580;2023-03-01T06:04:20;2.30;;;1.27;;
69991;SDS011;57332;51.320;-0.580;2023-03-01T06:06:47;2.25;;;1.17;;
69991;SDS011;57332;51.320;-0.580;2023-03-01T06:09:14;3.35;;;1.33;;
69991;SDS011;57332;51.320;-0.580;2023-03-01T06:11:42;3.03;;;1.10;;
69991;SDS011;57332;51.320;-0.580;2023-03-01T06:14:09;3.25;;;1.30;;
69991;SDS011;57332;51.320;-0.580;2023-03-01T06:16:37;2.65;;;1.08;;
69991;SDS011;57332;51.320;-0.580;2023-03-01T06:19:04;3.22;;;1.30;;
69991;SDS011;57332;51.320;-0.580;2023-03-01T06:21:30;2.50;;;1.15;;
69991;SDS011;57332;51.320;-0.580;2023-03-01T06:23:57;2.10;;;1.17;;
69991;SDS011;57332;51.320;-0.580;2023-03-01T06:26:24;3.08;;;1.25;;
69991;SDS011;57332;51.320;-0.580;2023-03-01T06:28:51;4.15;;;1.13;;
69991;SDS011;57332;51.320;-0.580;2023-03-01T06:31:18;2.35;;;1.27;;
69991;SDS011;57332;51.320;-0.580;2023-03-01T06:33:45;2.83;;;1.35;;
69991;SDS011;57332;51.320;-0.580;2023-03-01T06:36:12;2.67;;;1.17;;
69991;SDS011;57332;51.320;-0.580;2023-03-01T06:38:38;4.32;;;1.40;;
69991;SDS011;57332;51.320;-0.580;2023-03-01T06:41:07;4.13;;;1.63;;
69991;SDS011;57332;51.320;-0.580;2023-03-01T06:43:34;4.78;;;1.55;;
69991;SDS011;57332;51.320;-0.580;2023-03-01T06:46:03;5.25;;;1.30;;
69991;SDS011;57332;51.320;-0.580;2023-03-01T06:48:30;2.65;;;1.20;;
69991;SDS011;57332;51.320;-0.580;2023-03-01T06:51:00;3.58;;;1.50;;
69991;SDS011;57332;51.320;-0.580;2023-03-01T06:53:28;4.57;;;1.60;;
69991;SDS011;57332;51.320;-0.580;2023-03-01T06:55:58;4.57;;;1.35;;
69991;SDS011;57332;51.320;-0.580;2023-03-01T06:58:26;2.10;;;1.20;;
69991;SDS011;57332;51.320;-0.580;2023-03-01T07:00:53;3.28;;;1.50;;
69991;SDS011;57332;51.320;-0.580;2023-03-01T07:03:20;2.92;;;1.73;;
69991;SDS011;57332;51.320;-0.580;2023-03-01T07:05:48;3.10;;;1.20;;
69991;SDS011;57332;51.320;-0.580;2023-03-01T07:08:16;2.97;;;1.50;;
69991;SDS011;57332;51.320;-0.580;2023-03-01T07:10:42;4.72;;;1.48;;
69991;SDS011;57332;51.320;-0.580;2023-03-01T07:13:09;3.08;;;1.40;;
69991;SDS011;57332;51.320;-0.580;2023-03-01T07:15:36;4.95;;;1.85;;
69991;SDS011;57332;51.320;-0.580;2023-03-01T07:18:03;3.85;;;1.50;;
69991;SDS011;57332;51.320;-0.580;2023-03-01T07:20:30;5.15;;;1.95;;
69991;SDS011;57332;51.320;-0.580;2023-03-01T07:22:57;7.25;;;3.03;;
69991;SDS011;57332;51.320;-0.580;2023-03-01T07:25:25;6.88;;;2.15;;
69991;SDS011;57332;51.320;-0.580;2023-03-01T07:27:52;6.15;;;2.20;;
69991;SDS011;57332;51.320;-0.580;2023-03-01T07:30:19;4.60;;;1.90;;
69991;SDS011;57332;51.320;-0.580;2023-03-01T07:32:46;4.50;;;1.90;;
69991;SDS011;57332;51.320;-0.580;2023-03-01T07:35:14;4.18;;;1.77;;
69991;SDS011;57332;51.320;-0.580;2023-03-01T07:37:41;3.78;;;1.80;;
69991;SDS011;57332;51.320;-0.580;2023-03-01T07:40:08;5.32;;;1.73;;
69991;SDS011;57332;51.320;-0.580;2023-03-01T07:42:35;3.58;;;1.63;;
69991;SDS011;57332;51.320;-0.580;2023-03-01T07:45:03;3.03;;;1.48;;
69991;SDS011;57332;51.320;-0.580;2023-03-01T07:47:30;2.53;;;1.52;;
69991;SDS011;57332;51.320;-0.580;2023-03-01T07:49:57;3.85;;;1.40;;
69991;SDS011;57332;51.320;-0.580;2023-03-01T07:52:24;4.60;;;1.45;;
69991;SDS011;57332;51.320;-0.580;2023-03-01T07:54:51;3.17;;;1.70;;
69991;SDS011;57332;51.320;-0.580;2023-03-01T07:57:18;3.40;;;1.70;;
69991;SDS011;57332;51.320;-0.580;2023-03-01T07:59:45;3.92;;;1.42;;
69991;SDS011;57332;51.320;-0.580;2023-03-01T08:02:12;5.20;;;1.30;;
69991;SDS011;57332;51.320;-0.580;2023-03-01T08:04:39;3.63;;;1.45;;
69991;SDS011;57332;51.320;-0.580;2023-03-01T08:07:06;5.82;;;1.65;;
69991;SDS011;57332;51.320;-0.580;2023-03-01T08:09:36;3.72;;;1.48;;
69991;SDS011;57332;51.320;-0.580;2023-03-01T08:12:06;4.25;;;1.63;;
69991;SDS011;57332;51.320;-0.580;2023-03-01T08:14:33;4.88;;;2.05;;
69991;SDS011;57332;51.320;-0.580;2023-03-01T08:17:00;5.72;;;1.65;;
69991;SDS011;57332;51.320;-0.580;2023-03-01T08:19:29;4.60;;;1.88;;
69991;SDS011;57332;51.320;-0.580;2023-03-01T08:21:56;3.88;;;1.77;;
69991;SDS011;57332;51.320;-0.580;2023-03-01T08:24:24;5.55;;;1.92;;
69991;SDS011;57332;51.320;-0.580;2023-03-01T08:26:52;6.45;;;1.98;;
69991;SDS011;57332;51.320;-0.580;2023-03-01T08:29:19;3.67;;;1.90;;
69991;SDS011;57332;51.320;-0.580;2023-03-01T08:31:46;4.80;;;1.52;;
69991;SDS011;57332;51.320;-0.580;2023-03-01T08:34:14;5.45;;;1.58;;
69991;SDS011;57332;51.320;-0.580;2023-03-01T08:36:42;3.80;;;1.55;;
69991;SDS011;57332;51.320;-0.580;2023-03-01T08:39:11;3.33;;;1.23;;
69991;SDS011;57332;51.320;-0.580;2023-03-01T08:41:38;4.13;;;1.30;;
69991;SDS011;57332;51.320;-0.580;2023-03-01T08:44:05;3.10;;;1.58;;
69991;SDS011;57332;51.320;-0.580;2023-03-01T08:46:33;5.85;;;1.25;;
69991;SDS011;57332;51.320;-0.580;2023-03-01T08:49:02;3.85;;;1.55;;
69991;SDS011;57332;51.320;-0.580;2023-03-01T08:51:29;2.85;;;1.50;;
69991;SDS011;57332;51.320;-0.580;2023-03-01T08:53:58;4.25;;;1.58;;
69991;SDS011;57332;51.320;-0.580;2023-03-01T08:56:25;4.00;;;1.65;;
69991;SDS011;57332;51.320;-0.580;2023-03-01T08:58:52;2.88;;;1.50;;
69991;SDS011;57332;51.320;-0.580;2023-03-01T09:01:19;6.35;;;1.75;;
69991;SDS011;57332;51.320;-0.580;2023-03-01T09:03:46;3.80;;;1.42;;
69991;SDS011;57332;51.320;-0.580;2023-03-01T09:06:13;3.42;;;1.27;;
69991;SDS011;57332;51.320;-0.580;2023-03-01T09:08:42;4.38;;;1.50;;
69991;SDS011;57332;51.320;-0.580;2023-03-01T09:11:10;3.38;;;1.40;;
69991;SDS011;57332;51.320;-0.580;2023-03-01T09:13:37;3.17;;;1.17;;
69991;SDS011;57332;51.320;-0.580;2023-03-01T09:16:04;5.57;;;1.20;;
69991;SDS011;57332;51.320;-0.580;2023-03-01T09:18:31;5.05;;;1.73;;
69991;SDS011;57332;51.320;-0.580;2023-03-01T09:21:07;2.40;;;1.20;;
69991;SDS011;57332;51.320;-0.580;2023-03-01T09:23:34;3.58;;;1.40;;
69991;SDS011;57332;51.320;-0.580;2023-03-01T09:26:03;5.55;;;1.63;;
69991;SDS011;57332;51.320;-0.580;2023-03-01T09:28:30;3.38;;;1.13;;
69991;SDS011;57332;51.320;-0.580;2023-03-01T09:30:57;3.25;;;1.30;;
69991;SDS011;57332;51.320;-0.580;2023-03-01T09:33:25;3.60;;;1.20;;
69991;SDS011;57332;51.320;-0.580;2023-03-01T09:35:58;3.08;;;1.45;;
69991;SDS011;57332;51.320;-0.580;2023-03-01T09:38:25;2.72;;;1.40;;
69991;SDS011;57332;51.320;-0.580;2023-03-01T09:40:52;2.72;;;1.00;;
69991;SDS011;57332;51.320;-0.580;2023-03-01T09:45:47;2.63;;;1.10;;
69991;SDS011;57332;51.320;-0.580;2023-03-01T09:48:18;1.98;;;0.90;;
69991;SDS011;57332;51.320;-0.580;2023-03-01T09:50:48;3.70;;;1.73;;
69991;SDS011;57332;51.320;-0.580;2023-03-01T09:53:17;2.22;;;0.85;;
69991;SDS011;57332;51.320;-0.580;2023-03-01T09:55:46;2.00;;;0.90;;
69991;SDS011;57332;51.320;-0.580;2023-03-01T10:00:54;1.67;;;0.77;;
69991;SDS011;57332;51.320;-0.580;2023-03-01T10:03:25;4.13;;;1.52;;
69991;SDS011;57332;51.320;-0.580;2023-03-01T10:05:59;2.75;;;1.25;;
69991;SDS011;57332;51.320;-0.580;2023-03-01T10:08:36;1.98;;;0.88;;
69991;SDS011;57332;51.320;-0.580;2023-03-01T10:11:12;1.77;;;0.73;;
69991;SDS011;57332;51.320;-0.580;2023-03-01T10:13:51;2.22;;;0.80;;
69991;SDS011;57332;51.320;-0.580;2023-03-01T10:16:23;2.35;;;0.85;;
69991;SDS011;57332;51.320;-0.580;2023-03-01T10:18:53;1.98;;;0.77;;
69991;SDS011;57332;51.320;-0.580;2023-03-01T10:21:21;1.58;;;0.40;;
69991;SDS011;57332;51.320;-0.580;2023-03-01T10:23:49;2.40;;;0.50;;
69991;SDS011;57332;51.320;-0.580;2023-03-01T10:28:57;1.25;;;0.45;;
69991;SDS011;57332;51.320;-0.580;2023-03-01T10:31:27;1.38;;;0.80;;
69991;SDS011;57332;51.320;-0.580;2023-03-01T10:34:14;1.45;;;0.77;;
69991;SDS011;57332;51.320;-0.580;2023-03-01T10:36:42;1.92;;;0.82;;
69991;SDS011;57332;51.320;-0.580;2023-03-01T10:39:20;1.83;;;0.85;;
69991;SDS011;57332;51.320;-0.580;2023-03-01T10:47:02;1.30;;;0.70;;
69991;SDS011;57332;51.320;-0.580;2023-03-01T10:49:29;2.58;;;0.60;;
69991;SDS011;57332;51.320;-0.580;2023-03-01T10:51:56;1.58;;;0.77;;
69991;SDS011;57332;51.320;-0.580;2023-03-01T10:54:37;3.00;;;1.00;;
69991;SDS011;57332;51.320;-0.580;2023-03-01T10:57:10;1.42;;;0.80;;
69991;SDS011;57332;51.320;-0.580;2023-03-01T11:00:00;2.35;;;0.95;;
69991;SDS011;57332;51.320;-0.580;2023-03-01T11:02:30;2.45;;;1.00;;
69991;SDS011;57332;51.320;-0.580;2023-03-01T11:07:24;2.20;;;1.00;;
69991;SDS011;57332;51.320;-0.580;2023-03-01T11:09:51;3.03;;;1.20;;
69991;SDS011;57332;51.320;-0.580;2023-03-01T11:12:18;2.60;;;1.20;;
69991;SDS011;57332;51.320;-0.580;2023-03-01T11:14:53;2.15;;;0.95;;
69991;SDS011;57332;51.320;-0.580;2023-03-01T11:22:49;2.08;;;0.80;;
69991;SDS011;57332;51.320;-0.580;2023-03-01T11:25:17;2.10;;;1.00;;
69991;SDS011;57332;51.320;-0.580;2023-03-01T11:27:45;3.17;;;0.95;;
69991;SDS011;57332;51.320;-0.580;2023-03-01T11:35:41;1.13;;;0.70;;
69991;SDS011;57332;51.320;-0.580;2023-03-01T11:43:26;2.65;;;1.10;;
69991;SDS011;57332;51.320;-0.580;2023-03-01T11:51:19;2.78;;;1.15;;
69991;SDS011;57332;51.320;-0.580;2023-03-01T11:56:34;2.83;;;0.80;;
69991;SDS011;57332;51.320;-0.580;2023-03-01T11:59:06;2.80;;;0.85;;
69991;SDS011;57332;51.320;-0.580;2023-03-01T12:06:47;1.58;;;0.90;;
69991;SDS011;57332;51.320;-0.580;2023-03-01T12:19:33;2.50;;;1.10;;
69991;SDS011;57332;51.320;-0.580;2023-03-01T12:40:47;1.27;;;0.73;;
69991;SDS011;57332;51.320;-0.580;2023-03-01T12:43:27;1.85;;;0.80;;
69991;SDS011;57332;51.320;-0.580;2023-03-01T12:50:55;2.67;;;0.98;;
69991;SDS011;57332;51.320;-0.580;2023-03-01T12:53:25;2.25;;;1.10;;
69991;SDS011;57332;51.320;-0.580;2023-03-01T12:55:53;2.90;;;0.90;;
69991;SDS011;57332;51.320;-0.580;2023-03-01T13:11:36;3.40;;;1.38;;
69991;SDS011;57332;51.320;-0.580;2023-03-01T13:16:52;2.20;;;1.30;;
69991;SDS011;57332;51.320;-0.580;2023-03-01T13:21:47;3.30;;;1.52;;
69991;SDS011;57332;51.320;-0.580;2023-03-01T13:29:48;4.13;;;1.10;;
69991;SDS011;57332;51.320;-0.580;2023-03-01T13:32:34;2.72;;;0.93;;
69991;SDS011;57332;51.320;-0.580;2023-03-01T13:37:37;4.05;;;1.20;;
69991;SDS011;57332;51.320;-0.580;2023-03-01T13:42:57;5.10;;;1.48;;
69991;SDS011;57332;51.320;-0.580;2023-03-01T13:45:44;7.35;;;1.67;;
69991;SDS011;57332;51.320;-0.580;2023-03-01T13:48:15;4.82;;;1.58;;
69991;SDS011;57332;51.320;-0.580;2023-03-01T13:50:50;7.97;;;2.08;;
69991;SDS011;57332;51.320;-0.580;2023-03-01T13:53:19;3.58;;;1.45;;
69991;SDS011;57332;51.320;-0.580;2023-03-01T13:55:55;3.78;;;1.33;;
69991;SDS011;57332;51.320;-0.580;2023-03-01T13:58:29;2.28;;;1.38;;
69991;SDS011;57332;51.320;-0.580;2023-03-01T14:03:24;2.47;;;1.20;;
69991;SDS011;57332;51.320;-0.580;2023-03-01T14:05:59;2.63;;;1.13;;
69991;SDS011;57332;51.320;-0.580;2023-03-01T14:08:39;3.67;;;1.42;;
69991;SDS011;57332;51.320;-0.580;2023-03-01T14:21:25;3.40;;;1.90;;
69991;SDS011;57332;51.320;-0.580;2023-03-01T14:23:52;2.97;;;1.35;;
69991;SDS011;57332;51.320;-0.580;2023-03-01T14:26:22;2.67;;;1.60;;
69991;SDS011;57332;51.320;-0.580;2023-03-01T14:28:49;3.55;;;1.35;;
69991;SDS011;57332;51.320;-0.580;2023-03-01T14:31:31;3.25;;;1.60;;
69991;SDS011;57332;51.320;-0.580;2023-03-01T14:34:18;3.75;;;1.40;;
69991;SDS011;57332;51.320;-0.580;2023-03-01T14:36:45;3.17;;;1.50;;
69991;SDS011;57332;51.320;-0.580;2023-03-01T14:39:17;5.13;;;1.50;;
69991;SDS011;57332;51.320;-0.580;2023-03-01T14:41:44;2.50;;;1.33;;
69991;SDS011;57332;51.320;-0.580;2023-03-01T14:44:14;4.30;;;1.20;;
69991;SDS011;57332;51.320;-0.580;2023-03-01T14:46:41;3.28;;;1.30;;
69991;SDS011;57332;51.320;-0.580;2023-03-01T14:51:40;1.88;;;1.15;;
69991;SDS011;57332;51.320;-0.580;2023-03-01T14:54:27;3.13;;;1.25;;
69991;SDS011;57332;51.320;-0.580;2023-03-01T14:57:00;3.28;;;1.70;;
69991;SDS011;57332;51.320;-0.580;2023-03-01T14:59:27;3.10;;;1.75;;
69991;SDS011;57332;51.320;-0.580;2023-03-01T15:01:55;2.85;;;1.60;;
69991;SDS011;57332;51.320;-0.580;2023-03-01T15:04:23;3.03;;;1.63;;
69991;SDS011;57332;51.320;-0.580;2023-03-01T15:06:51;2.53;;;1.40;;
69991;SDS011;57332;51.320;-0.580;2023-03-01T15:09:18;2.45;;;1.40;;
69991;SDS011;57332;51.320;-0.580;2023-03-01T15:11:45;3.30;;;1.30;;
69991;SDS011;57332;51.320;-0.580;2023-03-01T15:17:33;5.22;;;1.38;;
69991;SDS011;57332;51.320;-0.580;2023-03-01T15:20:02;2.58;;;1.20;;
69991;SDS011;57332;51.320;-0.580;2023-03-01T15:22:30;1.98;;;1.30;;
69991;SDS011;57332;51.320;-0.580;2023-03-01T15:24:57;2.75;;;1.30;;
69991;SDS011;57332;51.320;-0.580;2023-03-01T15:27:25;4.63;;;1.38;;
69991;SDS011;57332;51.320;-0.580;2023-03-01T15:29:57;3.72;;;1.50;;
69991;SDS011;57332;51.320;-0.580;2023-03-01T15:32:35;3.95;;;1.45;;
69991;SDS011;57332;51.320;-0.580;2023-03-01T15:35:49;2.42;;;1.40;;
69991;SDS011;57332;51.320;-0.580;2023-03-01T15:37:50;1.73;;;1.40;;
69991;SDS011;57332;51.320;-0.580;2023-03-01T15:40:22;3.22;;;1.48;;
69991;SDS011;57332;51.320;-0.580;2023-03-01T15:42:52;2.70;;;1.27;;
69991;SDS011;57332;51.320;-0.580;2023-03-01T15:45:21;2.13;;;1.38;;
69991;SDS011;57332;51.320;-0.580;2023-03-01T15:47:53;2.40;;;1.33;;
69991;SDS011;57332;51.320;-0.580;2023-03-01T15:50:21;4.00;;;1.50;;
69991;SDS011;57332;51.320;-0.580;2023-03-01T15:52:49;3.15;;;1.33;;
69991;SDS011;57332;51.320;-0.580;2023-03-01T15:57:46;2.30;;;1.42;;
69991;SDS011;57332;51.320;-0.580;2023-03-01T16:00:14;2.92;;;1.20;;
69991;SDS011;57332;51.320;-0.580;2023-03-01T16:02:42;2.45;;;1.40;;
69991;SDS011;57332;51.320;-0.580;2023-03-01T16:05:28;4.28;;;1.60;;
69991;SDS011;57332;51.320;-0.580;2023-03-01T16:07:57;2.05;;;1.63;;
69991;SDS011;57332;51.320;-0.580;2023-03-01T16:10:24;3.20;;;1.45;;
69991;SDS011;57332;51.320;-0.580;2023-03-01T16:12:51;3.50;;;1.58;;
69991;SDS011;57332;51.320;-0.580;2023-03-01T16:15:23;2.22;;;1.33;;
69991;SDS011;57332;51.320;-0.580;2023-03-01T16:17:51;2.85;;;1.27;;
69991;SDS011;57332;51.320;-0.580;2023-03-01T16:20:18;2.88;;;1.20;;
69991;SDS011;57332;51.320;-0.580;2023-03-01T16:22:55;3.55;;;1.33;;
69991;SDS011;57332;51.320;-0.580;2023-03-01T16:25:24;2.45;;;1.48;;
69991;SDS011;57332;51.320;-0.580;2023-03-01T16:27:51;2.13;;;1.30;;
69991;SDS011;57332;51.320;-0.580;2023-03-01T16:30:19;1.40;;;1.00;;
69991;SDS011;57332;51.320;-0.580;2023-03-01T16:32:47;4.20;;;1.30;;
69991;SDS011;57332;51.320;-0.580;2023-03-01T16:35:15;4.07;;;1.45;;
69991;SDS011;57332;51.320;-0.580;2023-03-01T16:37:43;3.88;;;1.58;;
69991;SDS011;57332;51.320;-0.580;2023-03-01T16:40:20;2.47;;;1.27;;
69991;SDS011;57332;51.320;-0.580;2023-03-01T16:42:48;2.50;;;1.23;;
69991;SDS011;57332;51.320;-0.580;2023-03-01T16:45:15;2.60;;;1.30;;
69991;SDS011;57332;51.320;-0.580;2023-03-01T16:47:50;2.92;;;1.73;;
69991;SDS011;57332;51.320;-0.580;2023-03-01T16:50:21;2.97;;;1.40;;
69991;SDS011;57332;51.320;-0.580;2023-03-01T16:52:48;2.53;;;1.40;;
69991;SDS011;57332;51.320;-0.580;2023-03-01T16:55:14;3.35;;;1.23;;
69991;SDS011;57332;51.320;-0.580;2023-03-01T16:57:41;2.25;;;1.00;;
69991;SDS011;57332;51.320;-0.580;2023-03-01T17:00:09;1.90;;;1.15;;
69991;SDS011;57332;51.320;-0.580;2023-03-01T17:02:37;2.95;;;1.15;;
69991;SDS011;57332;51.320;-0.580;2023-03-01T17:05:04;2.15;;;1.10;;
69991;SDS011;57332;51.320;-0.580;2023-03-01T17:07:31;2.53;;;1.15;;